SBOSBO EGC / LFBE
Speedbird OnlineSpeedbird Online EGC / LFBE

Bergerac-Roumanière Airport
22:35 13°C

Location Bergerac, France
Latitude: 44.82529830932617
Longitude: 0.5186110138893127
Web Wikipedia
Altitude 52 Meter / 171 Feet
Distance 744 KM / 462 Miles
from London.
Time Zone UTC +2 hours (Europe/Paris)
Codes IATA: EGC
ICAO: LFBE
Currency £1 equals EUR 1.12
Runways
RunwayLength (m)Surface
092205Asphalt
272205Asphalt
Radio
TypeDescriptionFrequency
APPAQUITAINE APP119.275
TWRBERGERAC TWR119.8
Live ATC
METAR LFBE 242000Z AUTO VRB02KT 9999 ///CB 13/12 Q1014 TEMPO 4000 SHRA
TAF TAF AMD LFBE 241908Z 2419/2512 23005KT 9999 BKN030 TEMPO 2419/2422 4000 SHRA BKN020TCU PROB30 TEMPO 2419/2421 -TSRA BKN020CB PROB40 2500/2508 0500 FG VV///
Weather As Of 24 Sep 2022 22:35
Description Overcast clouds
Wind 4 km/h from North (0°)
Cloud Cover 100%
Precipitation Rain: none, Snow: none
Sunrise 07:47
Sunset 19:52
Rotations During the last 90 days there were
57 flights from LCY
29 flights from SOU
59 flights to LCY
29 flights to SOU


© 2017-2022 Speedbird Online